sensor_id;sensor_type;location;lat;lon;timestamp;pressure;altitude;pressure_sealevel;temperature;humidity
44457;BME280;30159;49.316;8.558;2023-10-09T00:01:03;100973.28;;;14.63;100.00
44457;BME280;30159;49.316;8.558;2023-10-09T00:03:39;100982.88;;;14.55;100.00
44457;BME280;30159;49.316;8.558;2023-10-09T00:06:06;100980.22;;;14.50;100.00
44457;BME280;30159;49.316;8.558;2023-10-09T00:08:35;100976.81;;;14.39;100.00
44457;BME280;30159;49.316;8.558;2023-10-09T00:11:04;100983.31;;;14.38;100.00
44457;BME280;30159;49.316;8.558;2023-10-09T00:13:43;100955.34;;;14.19;100.00
44457;BME280;30159;49.316;8.558;2023-10-09T00:16:16;100971.00;;;14.27;100.00
44457;BME280;30159;49.316;8.558;2023-10-09T00:18:47;100965.91;;;14.20;100.00
44457;BME280;30159;49.316;8.558;2023-10-09T00:21:14;100968.13;;;14.18;100.00
44457;BME280;30159;49.316;8.558;2023-10-09T00:23:41;100960.84;;;14.13;100.00
44457;BME280;30159;49.316;8.558;2023-10-09T00:26:08;100969.25;;;14.12;100.00
44457;BME280;30159;49.316;8.558;2023-10-09T00:28:38;100968.97;;;14.13;100.00
44457;BME280;30159;49.316;8.558;2023-10-09T00:31:08;100963.56;;;14.13;100.00
44457;BME280;30159;49.316;8.558;2023-10-09T00:33:40;100940.13;;;13.99;100.00
44457;BME280;30159;49.316;8.558;2023-10-09T00:36:07;100961.06;;;14.17;100.00
44457;BME280;30159;49.316;8.558;2023-10-09T00:38:36;100957.84;;;14.15;100.00
44457;BME280;30159;49.316;8.558;2023-10-09T00:41:04;100954.81;;;14.17;100.00
44457;BME280;30159;49.316;8.558;2023-10-09T00:43:36;100917.91;;;13.97;100.00
44457;BME280;30159;49.316;8.558;2023-10-09T00:46:04;100955.28;;;14.24;100.00
44457;BME280;30159;49.316;8.558;2023-10-09T00:48:38;100951.50;;;14.25;100.00
44457;BME280;30159;49.316;8.558;2023-10-09T00:51:06;100942.03;;;14.22;100.00
44457;BME280;30159;49.316;8.558;2023-10-09T00:53:42;100903.03;;;13.94;100.00
44457;BME280;30159;49.316;8.558;2023-10-09T00:56:09;100947.91;;;14.29;100.00
44457;BME280;30159;49.316;8.558;2023-10-09T00:58:45;100903.69;;;14.05;100.00
44457;BME280;30159;49.316;8.558;2023-10-09T01:01:14;100937.84;;;14.30;100.00
44457;BME280;30159;49.316;8.558;2023-10-09T01:03:43;100920.47;;;14.31;100.00
44457;BME280;30159;49.316;8.558;2023-10-09T01:06:11;100938.53;;;14.41;100.00
44457;BME280;30159;49.316;8.558;2023-10-09T01:08:46;100929.28;;;14.42;100.00
44457;BME280;30159;49.316;8.558;2023-10-09T01:11:22;100911.50;;;14.30;100.00
44457;BME280;30159;49.316;8.558;2023-10-09T01:13:55;100925.78;;;14.41;100.00
44457;BME280;30159;49.316;8.558;2023-10-09T01:16:38;100926.34;;;14.38;100.00
44457;BME280;30159;49.316;8.558;2023-10-09T01:19:07;100922.19;;;14.46;100.00
44457;BME280;30159;49.316;8.558;2023-10-09T01:21:46;100924.66;;;14.42;100.00
44457;BME280;30159;49.316;8.558;2023-10-09T01:24:15;100756.84;;;13.31;100.00
44457;BME280;30159;49.316;8.558;2023-10-09T01:26:42;100920.78;;;14.48;100.00
44457;BME280;30159;49.316;8.558;2023-10-09T01:29:13;100927.25;;;14.52;100.00
44457;BME280;30159;49.316;8.558;2023-10-09T01:31:42;100919.66;;;14.49;100.00
44457;BME280;30159;49.316;8.558;2023-10-09T01:34:20;100922.06;;;14.56;100.00
44457;BME280;30159;49.316;8.558;2023-10-09T01:36:52;100918.53;;;14.56;100.00
44457;BME280;30159;49.316;8.558;2023-10-09T01:39:23;100919.56;;;14.60;100.00
44457;BME280;30159;49.316;8.558;2023-10-09T01:41:52;100927.66;;;14.65;100.00
44457;BME280;30159;49.316;8.558;2023-10-09T01:44:27;100921.03;;;14.71;100.00
44457;BME280;30159;49.316;8.558;2023-10-09T01:47:00;100885.34;;;14.40;100.00
44457;BME280;30159;49.316;8.558;2023-10-09T01:49:32;100910.25;;;14.66;100.00
44457;BME280;30159;49.316;8.558;2023-10-09T01:52:01;100909.16;;;14.67;100.00
44457;BME280;30159;49.316;8.558;2023-10-09T01:54:35;100909.94;;;14.67;100.00
44457;BME280;30159;49.316;8.558;2023-10-09T01:57:04;100884.38;;;14.49;100.00
44457;BME280;30159;49.316;8.558;2023-10-09T01:59:35;100891.13;;;14.52;100.00
44457;BME280;30159;49.316;8.558;2023-10-09T02:02:04;100888.41;;;14.57;100.00
44457;BME280;30159;49.316;8.558;2023-10-09T02:04:40;100904.59;;;14.62;100.00
44457;BME280;30159;49.316;8.558;2023-10-09T02:07:07;100899.69;;;14.64;100.00
44457;BME280;30159;49.316;8.558;2023-10-09T02:09:35;100860.63;;;14.41;100.00
44457;BME280;30159;49.316;8.558;2023-10-09T02:12:10;100896.97;;;14.64;100.00
44457;BME280;30159;49.316;8.558;2023-10-09T02:14:37;100892.63;;;14.63;100.00
44457;BME280;30159;49.316;8.558;2023-10-09T02:17:07;100891.44;;;14.50;100.00
44457;BME280;30159;49.316;8.558;2023-10-09T02:19:43;100897.78;;;14.65;100.00
44457;BME280;30159;49.316;8.558;2023-10-09T02:22:14;100894.25;;;14.64;100.00
44457;BME280;30159;49.316;8.558;2023-10-09T02:24:43;100882.00;;;14.67;100.00
44457;BME280;30159;49.316;8.558;2023-10-09T02:27:23;100885.88;;;14.61;100.00
44457;BME280;30159;49.316;8.558;2023-10-09T02:30:08;100890.31;;;14.51;100.00
44457;BME280;30159;49.316;8.558;2023-10-09T02:32:42;100890.84;;;14.53;100.00
44457;BME280;30159;49.316;8.558;2023-10-09T02:35:09;100885.50;;;14.48;100.00
44457;BME280;30159;49.316;8.558;2023-10-09T02:37:46;100879.56;;;14.46;100.00
44457;BME280;30159;49.316;8.558;2023-10-09T02:40:14;100862.38;;;14.32;100.00
44457;BME280;30159;49.316;8.558;2023-10-09T02:42:49;100875.81;;;14.42;100.00
44457;BME280;30159;49.316;8.558;2023-10-09T02:45:16;100873.25;;;14.51;100.00
44457;BME280;30159;49.316;8.558;2023-10-09T02:47:44;100878.63;;;14.56;100.00
44457;BME280;30159;49.316;8.558;2023-10-09T02:50:14;100852.19;;;14.43;100.00
44457;BME280;30159;49.316;8.558;2023-10-09T02:52:46;100882.00;;;14.67;100.00
44457;BME280;30159;49.316;8.558;2023-10-09T02:55:14;100890.94;;;14.67;100.00
44457;BME280;30159;49.316;8.558;2023-10-09T02:57:49;100879.81;;;14.69;100.00
44457;BME280;30159;49.316;8.558;2023-10-09T03:00:21;100883.59;;;14.68;100.00
44457;BME280;30159;49.316;8.558;2023-10-09T03:02:54;100874.13;;;14.65;100.00
44457;BME280;30159;49.316;8.558;2023-10-09T03:05:23;100874.94;;;14.66;100.00
44457;BME280;30159;49.316;8.558;2023-10-09T03:07:52;100872.19;;;14.71;100.00
44457;BME280;30159;49.316;8.558;2023-10-09T03:10:22;100879.22;;;14.72;100.00
44457;BME280;30159;49.316;8.558;2023-10-09T03:12:49;100856.03;;;14.61;100.00
44457;BME280;30159;49.316;8.558;2023-10-09T03:15:18;100870.97;;;14.77;100.00
44457;BME280;30159;49.316;8.558;2023-10-09T03:17:45;100879.34;;;14.81;100.00
44457;BME280;30159;49.316;8.558;2023-10-09T03:20:13;100879.63;;;14.79;100.00
44457;BME280;30159;49.316;8.558;2023-10-09T03:22:40;100877.81;;;14.74;100.00
44457;BME280;30159;49.316;8.558;2023-10-09T03:25:08;100875.38;;;14.73;100.00
44457;BME280;30159;49.316;8.558;2023-10-09T03:27:38;100878.03;;;14.78;100.00
44457;BME280;30159;49.316;8.558;2023-10-09T03:30:08;100832.59;;;14.46;100.00
44457;BME280;30159;49.316;8.558;2023-10-09T03:32:42;100874.28;;;14.74;100.00
44457;BME280;30159;49.316;8.558;2023-10-09T03:35:09;100883.03;;;14.71;100.00
44457;BME280;30159;49.316;8.558;2023-10-09T03:37:39;100850.50;;;14.47;100.00
44457;BME280;30159;49.316;8.558;2023-10-09T03:40:07;100855.84;;;14.52;100.00
44457;BME280;30159;49.316;8.558;2023-10-09T03:42:34;100878.66;;;14.51;100.00
44457;BME280;30159;49.316;8.558;2023-10-09T03:45:04;100884.56;;;14.58;100.00
44457;BME280;30159;49.316;8.558;2023-10-09T03:47:37;100881.84;;;14.58;100.00
44457;BME280;30159;49.316;8.558;2023-10-09T03:50:07;100881.91;;;14.53;100.00
44457;BME280;30159;49.316;8.558;2023-10-09T03:52:52;100871.50;;;14.41;100.00
44457;BME280;30159;49.316;8.558;2023-10-09T03:55:18;100881.16;;;14.47;100.00
44457;BME280;30159;49.316;8.558;2023-10-09T03:57:47;100880.66;;;14.45;100.00
44457;BME280;30159;49.316;8.558;2023-10-09T04:00:16;100885.22;;;14.50;100.00
44457;BME280;30159;49.316;8.558;2023-10-09T04:02:54;100884.97;;;14.46;100.00
44457;BME280;30159;49.316;8.558;2023-10-09T04:05:22;100885.78;;;14.47;100.00
44457;BME280;30159;49.316;8.558;2023-10-09T04:07:49;100885.69;;;14.52;100.00
44457;BME280;30159;49.316;8.558;2023-10-09T04:10:18;100878.66;;;14.51;100.00
44457;BME280;30159;49.316;8.558;2023-10-09T04:13:09;100885.69;;;14.52;100.00
44457;BME280;30159;49.316;8.558;2023-10-09T04:15:39;100859.53;;;14.42;100.00
44457;BME280;30159;49.316;8.558;2023-10-09T04:18:08;100871.84;;;14.34;100.00
44457;BME280;30159;49.316;8.558;2023-10-09T04:20:40;100865.91;;;14.32;100.00
44457;BME280;30159;49.316;8.558;2023-10-09T04:23:33;100863.53;;;14.26;100.00
44457;BME280;30159;49.316;8.558;2023-10-09T04:26:01;100856.00;;;14.23;100.00
44457;BME280;30159;49.316;8.558;2023-10-09T04:28:36;100848.22;;;14.16;100.00
44457;BME280;30159;49.316;8.558;2023-10-09T04:31:04;100848.47;;;14.20;100.00
44457;BME280;30159;49.316;8.558;2023-10-09T04:33:33;100850.56;;;14.23;100.00
44457;BME280;30159;49.316;8.558;2023-10-09T04:36:08;100844.56;;;14.26;100.00
44457;BME280;30159;49.316;8.558;2023-10-09T04:38:42;100777.38;;;13.80;100.00
44457;BME280;30159;49.316;8.558;2023-10-09T04:41:21;100841.19;;;14.34;100.00
44457;BME280;30159;49.316;8.558;2023-10-09T04:43:53;100838.25;;;14.30;100.00
44457;BME280;30159;49.316;8.558;2023-10-09T04:46:30;100845.00;;;14.33;100.00
44457;BME280;30159;49.316;8.558;2023-10-09T04:49:09;100848.22;;;14.35;100.00
44457;BME280;30159;49.316;8.558;2023-10-09T04:51:52;100812.44;;;14.14;100.00
44457;BME280;30159;49.316;8.558;2023-10-09T04:54:29;100843.13;;;14.33;100.00
44457;BME280;30159;49.316;8.558;2023-10-09T04:57:05;100829.47;;;14.20;100.00
44457;BME280;30159;49.316;8.558;2023-10-09T04:59:43;100808.94;;;14.13;100.00
44457;BME280;30159;49.316;8.558;2023-10-09T05:02:15;100840.31;;;14.39;100.00
44457;BME280;30159;49.316;8.558;2023-10-09T05:04:45;100855.91;;;14.47;100.00
44457;BME280;30159;49.316;8.558;2023-10-09T05:07:13;100803.22;;;14.15;100.00
44457;BME280;30159;49.316;8.558;2023-10-09T05:10:12;100850.00;;;14.64;100.00
44457;BME280;30159;49.316;8.558;2023-10-09T05:12:42;100852.06;;;14.72;100.00
44457;BME280;30159;49.316;8.558;2023-10-09T05:15:13;100842.13;;;14.81;100.00
44457;BME280;30159;49.316;8.558;2023-10-09T05:17:41;100853.31;;;14.93;100.00
44457;BME280;30159;49.316;8.558;2023-10-09T05:20:17;100867.25;;;15.06;100.00
44457;BME280;30159;49.316;8.558;2023-10-09T05:23:09;100861.75;;;15.11;100.00
44457;BME280;30159;49.316;8.558;2023-10-09T05:25:50;100861.34;;;15.17;100.00
44457;BME280;30159;49.316;8.558;2023-10-09T05:28:18;100872.94;;;15.23;100.00
44457;BME280;30159;49.316;8.558;2023-10-09T05:30:56;100869.50;;;15.31;100.00
44457;BME280;30159;49.316;8.558;2023-10-09T05:33:33;100870.63;;;15.30;100.00
44457;BME280;30159;49.316;8.558;2023-10-09T05:36:01;100873.47;;;15.39;100.00
44457;BME280;30159;49.316;8.558;2023-10-09T05:38:41;100874.16;;;15.45;100.00
44457;BME280;30159;49.316;8.558;2023-10-09T05:41:12;100876.78;;;15.50;100.00
44457;BME280;30159;49.316;8.558;2023-10-09T05:43:52;100876.09;;;15.58;100.00
44457;BME280;30159;49.316;8.558;2023-10-09T05:46:36;100878.63;;;15.68;100.00
44457;BME280;30159;49.316;8.558;2023-10-09T05:49:14;100886.13;;;15.76;100.00
44457;BME280;30159;49.316;8.558;2023-10-09T05:51:45;100860.91;;;15.71;100.00
44457;BME280;30159;49.316;8.558;2023-10-09T05:54:19;100890.53;;;15.86;100.00
44457;BME280;30159;49.316;8.558;2023-10-09T05:57:05;100891.25;;;15.92;100.00
44457;BME280;30159;49.316;8.558;2023-10-09T05:59:49;100898.41;;;15.88;100.00
44457;BME280;30159;49.316;8.558;2023-10-09T06:02:33;100901.03;;;15.93;100.00
44457;BME280;30159;49.316;8.558;2023-10-09T06:05:19;100889.34;;;15.92;100.00
44457;BME280;30159;49.316;8.558;2023-10-09T06:08:00;100884.41;;;15.94;100.00
44457;BME280;30159;49.316;8.558;2023-10-09T06:10:33;100900.41;;;16.10;100.00
44457;BME280;30159;49.316;8.558;2023-10-09T06:13:10;100870.59;;;15.91;100.00
44457;BME280;30159;49.316;8.558;2023-10-09T06:16:09;100896.09;;;16.09;100.00
44457;BME280;30159;49.316;8.558;2023-10-09T06:18:46;100893.34;;;16.22;100.00
44457;BME280;30159;49.316;8.558;2023-10-09T06:21:33;100905.53;;;16.39;100.00
44457;BME280;30159;49.316;8.558;2023-10-09T06:24:26;100886.47;;;16.39;100.00
44457;BME280;30159;49.316;8.558;2023-10-09T06:26:59;100897.09;;;16.49;100.00
44457;BME280;30159;49.316;8.558;2023-10-09T06:46:44;100911.72;;;16.90;100.00
44457;BME280;30159;49.316;8.558;2023-10-09T06:49:17;100913.16;;;16.87;100.00
44457;BME280;30159;49.316;8.558;2023-10-09T06:51:58;100909.50;;;16.92;100.00
44457;BME280;30159;49.316;8.558;2023-10-09T06:54:40;100902.13;;;16.92;100.00
44457;BME280;30159;49.316;8.558;2023-10-09T06:57:15;100902.69;;;17.03;99.92
44457;BME280;30159;49.316;8.558;2023-10-09T07:00:01;100896.56;;;16.97;100.00
44457;BME280;30159;49.316;8.558;2023-10-09T07:02:47;100896.94;;;17.04;99.07
44457;BME280;30159;49.316;8.558;2023-10-09T07:05:13;100901.31;;;17.14;99.23
44457;BME280;30159;49.316;8.558;2023-10-09T07:07:43;100899.69;;;17.13;99.03
44457;BME280;30159;49.316;8.558;2023-10-09T07:23:00;100909.31;;;17.73;93.25
44457;BME280;30159;49.316;8.558;2023-10-09T07:25:40;100908.47;;;17.64;93.54
44457;BME280;30159;49.316;8.558;2023-10-09T07:28:09;100896.06;;;17.49;94.24
44457;BME280;30159;49.316;8.558;2023-10-09T07:30:52;100911.56;;;17.71;94.62
44457;BME280;30159;49.316;8.558;2023-10-09T07:33:23;100857.09;;;17.48;94.00
44457;BME280;30159;49.316;8.558;2023-10-09T07:36:00;100921.09;;;17.82;92.98
44457;BME280;30159;49.316;8.558;2023-10-09T07:38:32;100924.81;;;17.86;92.72
44457;BME280;30159;49.316;8.558;2023-10-09T07:41:02;100856.44;;;17.52;91.51
44457;BME280;30159;49.316;8.558;2023-10-09T07:43:43;100931.66;;;18.15;92.94
44457;BME280;30159;49.316;8.558;2023-10-09T07:46:12;100927.03;;;18.33;90.31
44457;BME280;30159;49.316;8.558;2023-10-09T07:49:00;100909.69;;;18.38;89.20
44457;BME280;30159;49.316;8.558;2023-10-09T07:51:34;100896.16;;;18.15;88.88
44457;BME280;30159;49.316;8.558;2023-10-09T07:54:04;100930.31;;;18.70;88.47
44457;BME280;30159;49.316;8.558;2023-10-09T07:56:33;100915.06;;;18.78;87.85
44457;BME280;30159;49.316;8.558;2023-10-09T07:59:04;100929.19;;;19.06;86.90
44457;BME280;30159;49.316;8.558;2023-10-09T08:01:37;100926.44;;;19.14;85.36
44457;BME280;30159;49.316;8.558;2023-10-09T08:04:04;100928.03;;;19.24;86.00
44457;BME280;30159;49.316;8.558;2023-10-09T08:06:37;100927.53;;;19.31;85.53
44457;BME280;30159;49.316;8.558;2023-10-09T08:09:06;100943.41;;;19.46;84.90
44457;BME280;30159;49.316;8.558;2023-10-09T08:12:11;100918.03;;;19.37;85.13
44457;BME280;30159;49.316;8.558;2023-10-09T08:15:01;100939.56;;;19.56;84.57
44457;BME280;30159;49.316;8.558;2023-10-09T08:17:41;100916.22;;;19.50;83.66
44457;BME280;30159;49.316;8.558;2023-10-09T08:20:13;100944.19;;;19.64;83.29
44457;BME280;30159;49.316;8.558;2023-10-09T08:22:42;100921.38;;;19.51;84.31
44457;BME280;30159;49.316;8.558;2023-10-09T08:25:10;100939.50;;;19.65;83.42
44457;BME280;30159;49.316;8.558;2023-10-09T08:27:55;100949.81;;;19.68;83.44
44457;BME280;30159;49.316;8.558;2023-10-09T08:30:23;100928.06;;;19.80;83.08
44457;BME280;30159;49.316;8.558;2023-10-09T08:33:03;100949.47;;;20.16;82.02
44457;BME280;30159;49.316;8.558;2023-10-09T08:35:52;100955.97;;;20.33;83.04
44457;BME280;30159;49.316;8.558;2023-10-09T08:38:21;100951.38;;;20.46;81.31
44457;BME280;30159;49.316;8.558;2023-10-09T08:40:51;100958.13;;;20.78;79.55
44457;BME280;30159;49.316;8.558;2023-10-09T08:43:23;100947.53;;;21.10;78.64
44457;BME280;30159;49.316;8.558;2023-10-09T08:45:53;100943.41;;;21.16;77.45
44457;BME280;30159;49.316;8.558;2023-10-09T08:48:26;100901.97;;;20.96;76.96
44457;BME280;30159;49.316;8.558;2023-10-09T08:50:55;100930.59;;;21.41;75.48
44457;BME280;30159;49.316;8.558;2023-10-09T08:53:23;100921.63;;;21.32;75.69
44457;BME280;30159;49.316;8.558;2023-10-09T08:55:54;100938.69;;;21.71;75.94
44457;BME280;30159;49.316;8.558;2023-10-09T08:58:21;100903.97;;;21.41;75.76
44457;BME280;30159;49.316;8.558;2023-10-09T09:00:50;100937.50;;;21.59;76.37
44457;BME280;30159;49.316;8.558;2023-10-09T09:03:18;100946.44;;;21.93;75.54
44457;BME280;30159;49.316;8.558;2023-10-09T09:05:56;100889.22;;;21.46;75.06
44457;BME280;30159;49.316;8.558;2023-10-09T09:08:27;100952.19;;;21.88;74.39
44457;BME280;30159;49.316;8.558;2023-10-09T09:10:58;100957.00;;;22.03;73.67
44457;BME280;30159;49.316;8.558;2023-10-09T09:13:37;100936.16;;;21.90;74.44
44457;BME280;30159;49.316;8.558;2023-10-09T09:16:13;100807.09;;;21.41;73.89
44457;BME280;30159;49.316;8.558;2023-10-09T09:18:49;100963.88;;;22.34;73.86
44457;BME280;30159;49.316;8.558;2023-10-09T09:21:18;100954.31;;;22.68;73.30
44457;BME280;30159;49.316;8.558;2023-10-09T09:23:54;100953.94;;;22.82;72.04
44457;BME280;30159;49.316;8.558;2023-10-09T09:26:35;100958.78;;;22.73;71.85
44457;BME280;30159;49.316;8.558;2023-10-09T09:29:10;100950.63;;;22.77;72.40
44457;BME280;30159;49.316;8.558;2023-10-09T09:31:37;100957.09;;;22.44;72.58
44457;BME280;30159;49.316;8.558;2023-10-09T09:34:07;100938.56;;;22.16;74.41
44457;BME280;30159;49.316;8.558;2023-10-09T09:36:50;100966.59;;;22.09;73.79
44457;BME280;30159;49.316;8.558;2023-10-09T09:39:21;100944.63;;;22.09;73.92
44457;BME280;30159;49.316;8.558;2023-10-09T09:41:56;100953.78;;;22.14;74.23
44457;BME280;30159;49.316;8.558;2023-10-09T09:44:33;100950.13;;;22.09;74.93
44457;BME280;30159;49.316;8.558;2023-10-09T09:47:09;100940.50;;;22.28;74.38
44457;BME280;30159;49.316;8.558;2023-10-09T09:49:41;100938.00;;;22.23;73.83
44457;BME280;30159;49.316;8.558;2023-10-09T09:52:08;100878.03;;;21.76;75.00
44457;BME280;30159;49.316;8.558;2023-10-09T09:54:37;100939.00;;;22.18;75.01
44457;BME280;30159;49.316;8.558;2023-10-09T09:57:07;100930.91;;;22.34;74.61
44457;BME280;30159;49.316;8.558;2023-10-09T09:59:38;100923.31;;;22.19;74.87
44457;BME280;30159;49.316;8.558;2023-10-09T10:02:20;100950.06;;;22.71;73.54
44457;BME280;30159;49.316;8.558;2023-10-09T10:04:54;100950.28;;;22.78;73.18
44457;BME280;30159;49.316;8.558;2023-10-09T10:07:24;100941.88;;;22.87;73.34
44457;BME280;30159;49.316;8.558;2023-10-09T10:09:53;100948.94;;;23.28;72.26
44457;BME280;30159;49.316;8.558;2023-10-09T10:12:52;100942.28;;;23.29;71.59
44457;BME280;30159;49.316;8.558;2023-10-09T10:15:58;100902.13;;;23.12;71.35
44457;BME280;30159;49.316;8.558;2023-10-09T10:18:31;100947.28;;;23.40;71.85
44457;BME280;30159;49.316;8.558;2023-10-09T10:21:12;100956.63;;;23.51;71.98
44457;BME280;30159;49.316;8.558;2023-10-09T10:23:42;100936.84;;;23.17;71.53
44457;BME280;30159;49.316;8.558;2023-10-09T10:26:22;100940.75;;;23.16;72.37
44457;BME280;30159;49.316;8.558;2023-10-09T10:29:20;100936.28;;;22.83;71.90
44457;BME280;30159;49.316;8.558;2023-10-09T10:31:53;100942.81;;;22.79;73.03
44457;BME280;30159;49.316;8.558;2023-10-09T10:34:22;100944.97;;;22.85;73.39
44457;BME280;30159;49.316;8.558;2023-10-09T10:36:50;100946.66;;;23.02;73.75
44457;BME280;30159;49.316;8.558;2023-10-09T10:39:24;100952.78;;;22.83;73.45
44457;BME280;30159;49.316;8.558;2023-10-09T10:42:08;100965.41;;;22.72;73.95
44457;BME280;30159;49.316;8.558;2023-10-09T10:44:41;100913.69;;;22.49;73.80
44457;BME280;30159;49.316;8.558;2023-10-09T10:47:12;100939.28;;;22.78;74.04
44457;BME280;30159;49.316;8.558;2023-10-09T10:49:51;100966.03;;;22.93;74.89
44457;BME280;30159;49.316;8.558;2023-10-09T10:52:24;100967.34;;;23.12;74.47
44457;BME280;30159;49.316;8.558;2023-10-09T10:55:11;100959.41;;;23.23;73.03
44457;BME280;30159;49.316;8.558;2023-10-09T10:57:44;100949.56;;;23.22;73.58
44457;BME280;30159;49.316;8.558;2023-10-09T11:00:27;100954.91;;;23.46;73.55
44457;BME280;30159;49.316;8.558;2023-10-09T11:03:17;100954.84;;;23.59;72.17
44457;BME280;30159;49.316;8.558;2023-10-09T11:05:54;100949.16;;;23.67;71.29
44457;BME280;30159;49.316;8.558;2023-10-09T11:08:24;100950.06;;;23.71;71.09
44457;BME280;30159;49.316;8.558;2023-10-09T11:11:10;100909.25;;;23.61;69.99
44457;BME280;30159;49.316;8.558;2023-10-09T11:13:41;100975.41;;;24.09;69.33
44457;BME280;30159;49.316;8.558;2023-10-09T11:16:20;100973.16;;;24.14;69.91
44457;BME280;30159;49.316;8.558;2023-10-09T11:19:07;100957.81;;;24.13;69.83
44457;BME280;30159;49.316;8.558;2023-10-09T11:21:50;100889.53;;;24.07;69.80
44457;BME280;30159;49.316;8.558;2023-10-09T11:24:26;100943.63;;;24.31;69.89
44457;BME280;30159;49.316;8.558;2023-10-09T11:26:53;100934.69;;;24.53;68.18
44457;BME280;30159;49.316;8.558;2023-10-09T11:29:21;100891.28;;;24.15;68.39
44457;BME280;30159;49.316;8.558;2023-10-09T11:32:07;100921.94;;;24.29;68.50
44457;BME280;30159;49.316;8.558;2023-10-09T11:34:43;100917.53;;;24.44;67.65
44457;BME280;30159;49.316;8.558;2023-10-09T11:37:17;100902.31;;;24.50;67.60
44457;BME280;30159;49.316;8.558;2023-10-09T11:39:57;100899.41;;;24.82;67.98
44457;BME280;30159;49.316;8.558;2023-10-09T11:42:26;100857.97;;;24.59;66.32
44457;BME280;30159;49.316;8.558;2023-10-09T11:45:01;100875.97;;;24.53;68.12
44457;BME280;30159;49.316;8.558;2023-10-09T11:47:46;100874.00;;;24.53;67.52
44457;BME280;30159;49.316;8.558;2023-10-09T11:50:38;100891.28;;;24.50;68.23
44457;BME280;30159;49.316;8.558;2023-10-09T11:53:08;100876.03;;;24.56;67.18
44457;BME280;30159;49.316;8.558;2023-10-09T11:55:43;100871.38;;;24.41;67.43
44457;BME280;30159;49.316;8.558;2023-10-09T11:58:14;100887.34;;;24.71;67.91
44457;BME280;30159;49.316;8.558;2023-10-09T12:00:46;100878.66;;;24.69;67.17
44457;BME280;30159;49.316;8.558;2023-10-09T12:03:14;100874.88;;;24.77;66.95
44457;BME280;30159;49.316;8.558;2023-10-09T12:05:42;100873.13;;;24.49;65.33
44457;BME280;30159;49.316;8.558;2023-10-09T12:08:10;100839.31;;;24.52;66.42
44457;BME280;30159;49.316;8.558;2023-10-09T12:10:39;100869.78;;;24.79;65.63
44457;BME280;30159;49.316;8.558;2023-10-09T12:13:06;100864.72;;;24.81;66.28
44457;BME280;30159;49.316;8.558;2023-10-09T12:15:33;100854.53;;;24.85;65.92
44457;BME280;30159;49.316;8.558;2023-10-09T12:18:05;100869.31;;;24.96;66.00
44457;BME280;30159;49.316;8.558;2023-10-09T12:20:35;100856.94;;;25.10;65.46
44457;BME280;30159;49.316;8.558;2023-10-09T12:23:03;100865.81;;;25.19;65.52
44457;BME280;30159;49.316;8.558;2023-10-09T12:25:32;100842.78;;;25.11;65.45
44457;BME280;30159;49.316;8.558;2023-10-09T12:28:00;100854.78;;;25.19;65.60
44457;BME280;30159;49.316;8.558;2023-10-09T12:30:28;100831.59;;;24.81;65.19
44457;BME280;30159;49.316;8.558;2023-10-09T12:32:55;100858.66;;;24.75;65.97
44457;BME280;30159;49.316;8.558;2023-10-09T12:35:23;100864.44;;;24.67;66.83
44457;BME280;30159;49.316;8.558;2023-10-09T12:37:52;100855.50;;;24.54;67.27
44457;BME280;30159;49.316;8.558;2023-10-09T12:40:20;100847.53;;;24.49;67.67
44457;BME280;30159;49.316;8.558;2023-10-09T12:42:51;100859.22;;;24.26;67.92
44457;BME280;30159;49.316;8.558;2023-10-09T12:45:23;100850.13;;;24.06;68.02
44457;BME280;30159;49.316;8.558;2023-10-09T12:47:53;100836.06;;;23.92;68.60
44457;BME280;30159;49.316;8.558;2023-10-09T12:50:24;100837.91;;;23.88;69.36
44457;BME280;30159;49.316;8.558;2023-10-09T12:52:56;100845.56;;;23.79;68.69
44457;BME280;30159;49.316;8.558;2023-10-09T12:55:27;100858.63;;;23.82;68.63
44457;BME280;30159;49.316;8.558;2023-10-09T12:57:59;100857.50;;;23.83;68.76
44457;BME280;30159;49.316;8.558;2023-10-09T13:00:29;100843.97;;;23.77;68.34
44457;BME280;30159;49.316;8.558;2023-10-09T13:02:58;100845.84;;;23.89;68.51
44457;BME280;30159;49.316;8.558;2023-10-09T13:05:26;100863.31;;;23.97;68.85
44457;BME280;30159;49.316;8.558;2023-10-09T13:07:53;100835.03;;;24.00;67.48
44457;BME280;30159;49.316;8.558;2023-10-09T13:10:23;100776.72;;;23.63;66.43
44457;BME280;30159;49.316;8.558;2023-10-09T13:12:51;100709.81;;;23.27;65.23
44457;BME280;30159;49.316;8.558;2023-10-09T13:15:21;100836.22;;;24.18;65.61
44457;BME280;30159;49.316;8.558;2023-10-09T13:17:48;100822.16;;;24.24;65.11
44457;BME280;30159;49.316;8.558;2023-10-09T13:20:14;100816.34;;;24.29;64.56
44457;BME280;30159;49.316;8.558;2023-10-09T13:22:42;100795.38;;;24.24;64.55
44457;BME280;30159;49.316;8.558;2023-10-09T13:25:10;100804.22;;;24.33;64.23
44457;BME280;30159;49.316;8.558;2023-10-09T13:27:43;100668.81;;;23.57;64.19
44457;BME280;30159;49.316;8.558;2023-10-09T13:30:17;100792.63;;;24.44;63.91
44457;BME280;30159;49.316;8.558;2023-10-09T13:32:48;100787.41;;;24.58;63.82
44457;BME280;30159;49.316;8.558;2023-10-09T13:35:16;100788.84;;;24.71;63.82
44457;BME280;30159;49.316;8.558;2023-10-09T13:37:44;100793.41;;;24.83;62.83
44457;BME280;30159;49.316;8.558;2023-10-09T13:40:21;100790.13;;;25.00;61.89
44457;BME280;30159;49.316;8.558;2023-10-09T13:42:55;100795.66;;;25.20;62.06
44457;BME280;30159;49.316;8.558;2023-10-09T13:45:25;100782.84;;;25.12;61.85
44457;BME280;30159;49.316;8.558;2023-10-09T13:47:54;100786.72;;;25.07;62.06